Aérodrome :
LOGIN :

S'inscrire | Disclaimer

   EN    FR    IT 

 










Légende :    VFR   VFR Marginal   IFR   IFR Intensif   IFR Très Intensif
Visi : 
Plafond : 
>= 8 km
>= 3000ft
5 à 8 km
1000 à 3000 ft
1500m à 5 km
500 à 1000 ft
800 à 1500m
200 à 500 ft
< 800m
< 200 ft
Symboles :   Orages  Brouillard  Fortes neiges  Fortes précipitations  Vent > 20 kt
SIGMETs :   Divers  Orages  Givrage  Turbulence  Onde Orograph.  Cendres Volcan.






- Altitude de l'aérodrome : 79 ft
- Code IATA : SPU


LDSP - Split

DERNIER METAR :
  • 281030Z 23008KT 200V260 CAVOK 15/06 Q1013 NOSIG

METARs EXPIRÉS :
  • 281000Z 22006KT 180V260 CAVOK 15/05 Q1014 NOSIG
  • 280930Z VRB03KT CAVOK 15/05 Q1014 NOSIG
  • 280900Z 11003KT 040V180 CAVOK 14/04 Q1014 NOSIG
  • 280830Z 08004KT 050V110 CAVOK 13/03 Q1014 NOSIG
  • 280800Z 13003KT 070V170 CAVOK 13/04 Q1014 NOSIG

TAF TAF LDSP
Valide du 28 à 06h jusqu'au 29 à 06h UTC


280525Z 2806/2906 35005KT 9999 BKN050 TX16/2813Z TN08/2806Z
BECMG 2809/2811 23008KT
BECMG 2816/2818 34005KT



MET'MAP, la Météo Aéronautique d'un coup d'oeil ! - Copyright ORBIFLY Décembre 2007 - Disclaimer

ORBIFLY MET'MAP TEAM :

Programmation & Développement : Alexandra Zaïnal
Sur une idée originale de : Baudouin d'Aumeries
Assistance à la programmation : Marc-Olivier Méhu
Soutien technique & logistique : Manuel Goepfert

Contact : metmap@orbifly.com




SOURCES & CREDITS :

   NOAA